Madison, AL

7:59 AM CST on January 29, 2015 (GMT -0600)
Towne Lakes | Change Station
CLOSE
Current Station
Personal Weather Station
Location: Madison, AL
Elevation: 577 ft
Nearby Weather Stations

Elev 577 ft 34.59 °N, 86.74 °W | Updated 3 minutes ago

Mostly Cloudy
Mostly Cloudy
48.2 °F
Feels Like 45 °F
N
7.0
Wind Variable Wind from South
Gusts 9.0 mph

Today
High -- | Low -- °F
--% Chance of Precip.
Yesterday
High -- | Low -- °F
Precip. -- in
6:47 AM 5:13 PM
Waxing Gibbous, 74% visible
Pressure 30.17 in
Visibility 10.0 miles
Clouds Mostly Cloudy 9500 ft
Overcast 20000 ft
Windchill 45 °F
Dew Point 35 °F
Humidity 61%
Rainfall 0.00 in
Snow Depth Not available.
UV 0 out of 12
Pollen 3.90 out of 12
Air Quality Not available.
Flu Activity Not available.
METAR KHSV 291353Z 18013KT 10SM BKN095 OVC200 09/01 A3017 RMK AO2 SLP216 T00940006

More Conditions Fewer Conditions

Pressure 30.17 in
Visibility 10.0 miles
Clouds Mostly Cloudy 9500 ft
Overcast 20000 ft
Windchill 45 °F
Dew Point 35 °F
Humidity 61%
Rainfall 0.00 in
Snow Depth Not available.
UV 0 out of 12
Pollen 3.90 out of 12
Air Quality Not available.
Flu Activity Not available.
METAR KHSV 291353Z 18013KT 10SM BKN095 OVC200 09/01 A3017 RMK AO2 SLP216 T00940006

More Conditions Fewer Conditions

10-Day Weather Forecast

Almanac

Astronomy

Jan. 29, 2015 Rise Set
Actual Time
Civil Twilight
Nautical Twilight
Astronomical Twilight
Moon
Length of Visible Light
Length of Day
Tomorrow will be .
, % of the Moon is Illuminated

Today's Extremes

State Highs State Lows

Community

WunderPhotos

Upload Photos

1,791,428 photos uploaded!

WunderBlogs® & News

Nearby

Air Quality

  Air Quality AQ Index Pollutant
Not available.

Snow Depth

Station Depth Elevation

Earthquake Activity

City Distance Mag. Time & Date
Minimum magnitude displayed is 2.5.

Coastal Water Temperatures

Place Temperature

Nearby Weather Stations